Time;durP1;ratioP1;P1;durP2;ratioP2;P2;SDS_P1;SDS_P2;PMS_P1;PMS_P2;Temp;Humidity;BMP_temperature;BMP_pressure;BME280_temperature;BME280_humidity;BME280_pressure;Samples;Min_cycle;Max_cycle;Signal;HPM_P1;HPM_P2
2022/04/21 00:00:42;;;;;;;12.03;11.30;;;;;;;0.83;95.60;92778.31;4989472;28;20246;-81
2022/04/21 00:03:08;;;;;;;11.43;10.73;;;;;;;0.96;95.65;92775.59;4990174;28;20223;-82
2022/04/21 00:05:34;;;;;;;13.37;12.37;;;;;;;0.89;94.66;92749.19;4993428;28;20181;-81
2022/04/21 00:08:00;;;;;;;12.37;11.30;;;;;;;0.81;94.51;92746.91;4991422;28;20242;-81
2022/04/21 00:10:26;;;;;;;14.37;12.97;;;;;;;0.91;95.08;92772.88;4991231;28;20279;-79
2022/04/21 00:12:52;;;;;;;13.43;12.17;;;;;;;0.64;94.73;92740.03;4990219;28;20203;-80
2022/04/21 00:15:18;;;;;;;13.20;11.93;;;;;;;0.89;94.54;92767.16;4992728;28;20185;-81
2022/04/21 00:17:44;;;;;;;14.10;12.67;;;;;;;0.80;94.51;92765.13;4991700;28;20211;-81
2022/04/21 00:20:11;;;;;;;14.87;13.73;;;;;;;0.82;95.19;92763.91;4991428;28;20247;-81
2022/04/21 00:25:20;;;;;;;12.50;11.27;;;;;;;0.77;94.69;92766.34;4972440;28;20225;-81
2022/04/21 00:27:46;;;;;;;14.20;12.73;;;;;;;0.78;94.79;92773.03;4972556;28;20205;-81
2022/04/21 00:30:15;;;;;;;12.63;11.50;;;;;;;0.76;94.94;92775.06;4970966;28;20288;-82
2022/04/21 00:32:41;;;;;;;13.37;12.10;;;;;;;0.78;95.02;92785.88;4972558;28;20216;-80
2022/04/21 00:35:11;;;;;;;12.73;11.53;;;;;;;0.61;94.81;92761.00;4990427;28;20230;-82
2022/04/21 00:38:03;;;;;;;13.70;12.57;;;;;;;0.81;94.78;92775.16;4991744;28;20188;-81
2022/04/21 00:40:30;;;;;;;12.33;11.57;;;;;;;0.69;95.42;92779.47;4988298;28;20231;-81
2022/04/21 00:42:56;;;;;;;12.23;11.53;;;;;;;0.73;95.60;92783.16;4990718;28;20200;-82
2022/04/21 00:45:23;;;;;;;10.17;9.47;;;;;;;0.68;95.59;92782.25;4991453;28;20207;-82
2022/04/21 00:47:49;;;;;;;10.90;10.30;;;;;;;0.65;95.89;92792.97;4991382;28;20192;-75
2022/04/21 00:50:23;;;;;;;10.40;9.80;;;;;;;0.55;96.21;92778.03;4991024;28;20227;-82
2022/04/21 00:52:50;;;;;;;12.50;11.70;;;;;;;0.64;96.53;92776.75;4990740;28;20219;-77
2022/04/21 00:55:15;;;;;;;11.40;10.60;;;;;;;0.37;96.42;92733.59;4991315;28;20255;-82
2022/04/21 00:57:42;;;;;;;12.53;11.53;;;;;;;0.69;96.17;92784.59;4991399;28;20188;-79
2022/04/21 01:00:09;;;;;;;12.13;10.87;;;;;;;0.62;96.11;92765.13;4990645;28;20255;-82
2022/04/21 01:02:47;;;;;;;12.07;11.20;;;;;;;0.72;95.90;92773.91;4990656;28;20187;-82
2022/04/21 01:05:30;;;;;;;12.03;11.17;;;;;;;0.72;95.67;92773.09;4971480;28;20300;-82
2022/04/21 01:08:06;;;;;;;12.50;11.33;;;;;;;0.53;96.50;92746.66;4972542;28;20193;-82
2022/04/21 01:10:35;;;;;;;11.83;11.07;;;;;;;0.73;96.47;92772.88;4990787;28;20218;-81
2022/04/21 01:13:06;;;;;;;10.77;9.87;;;;;;;0.59;95.85;92748.34;4990499;28;20199;-80
2022/04/21 01:15:32;;;;;;;11.23;10.53;;;;;;;0.80;95.69;92771.03;4990914;28;20203;-82
2022/04/21 01:17:58;;;;;;;11.43;10.63;;;;;;;0.72;95.83;92766.19;4990827;28;20203;-81
2022/04/21 01:20:24;;;;;;;12.80;11.97;;;;;;;0.76;95.85;92764.00;4990796;28;20196;-81
2022/04/21 01:22:51;;;;;;;12.23;11.37;;;;;;;0.59;95.96;92727.81;4990293;28;20235;-80
2022/04/21 01:25:16;;;;;;;12.17;11.33;;;;;;;0.77;96.16;92750.94;4989579;28;20248;-81
2022/04/21 01:27:43;;;;;;;13.10;12.10;;;;;;;0.80;95.74;92747.91;4991758;28;20199;-81
2022/04/21 01:30:11;;;;;;;11.33;10.63;;;;;;;0.87;95.71;92746.03;4990429;28;20238;-81
2022/04/21 01:32:37;;;;;;;11.40;10.70;;;;;;;0.89;95.60;92738.91;4990144;28;20223;-82
2022/04/21 01:35:05;;;;;;;11.77;10.97;;;;;;;0.68;96.13;92723.97;4989843;28;20228;-80
2022/04/21 01:43:00;;;;;;;12.73;11.73;;;;;;;0.85;95.53;92727.50;4987325;28;20226;-81
2022/04/21 01:45:25;;;;;;;16.57;10.80;;;;;;;0.87;95.23;92725.47;4990431;28;20212;-81
2022/04/21 01:47:50;;;;;;;12.73;11.73;;;;;;;0.80;95.01;92729.94;4990700;28;20196;-81
2022/04/21 01:50:16;;;;;;;13.60;12.50;;;;;;;0.79;95.15;92725.81;4990092;28;20250;-77
2022/04/21 01:52:41;;;;;;;12.87;11.77;;;;;;;0.56;96.00;92702.56;4990279;28;20184;-74
2022/04/21 01:55:07;;;;;;;13.37;12.13;;;;;;;0.71;95.69;92725.31;4989658;28;20279;-74
2022/04/21 01:57:33;;;;;;;16.77;13.77;;;;;;;0.56;95.30;92701.78;5005542;28;20215;-74
2022/04/21 01:59:59;;;;;;;12.10;11.10;;;;;;;0.59;95.74;92724.47;4989251;28;20967;-74
2022/04/21 02:02:24;;;;;;;13.33;12.13;;;;;;;0.62;95.24;92722.25;4990186;28;20192;-74
2022/04/21 02:04:50;;;;;;;13.40;12.23;;;;;;;0.51;95.25;92715.28;4989564;28;20240;-74
2022/04/21 02:07:17;;;;;;;14.20;12.80;;;;;;;0.57;95.60;92719.56;4990422;28;20195;-74
2022/04/21 02:09:42;;;;;;;13.13;12.07;;;;;;;0.51;95.08;92710.16;4989714;28;20255;-74
2022/04/21 02:12:10;;;;;;;13.20;12.17;;;;;;;0.63;95.04;92716.13;4990563;28;20192;-74
2022/04/21 02:14:35;;;;;;;12.33;11.33;;;;;;;0.48;95.23;92704.66;4989763;28;20238;-74
2022/04/21 02:17:05;;;;;;;11.93;11.13;;;;;;;0.51;95.25;92704.22;4990413;28;20244;-74
2022/04/21 02:19:30;;;;;;;11.83;11.10;;;;;;;0.32;95.66;92689.81;4989310;28;20283;-74
2022/04/21 02:21:56;;;;;;;12.30;11.50;;;;;;;0.42;95.62;92690.09;4989777;28;20235;-74
2022/04/21 02:24:21;;;;;;;11.70;10.97;;;;;;;0.38;95.54;92688.94;4989747;28;20228;-74
2022/04/21 02:26:47;;;;;;;12.67;11.57;;;;;;;0.39;95.73;92701.56;4990231;28;20207;-74
2022/04/21 02:29:12;;;;;;;13.73;12.70;;;;;;;0.47;95.21;92691.00;4989003;28;20246;-74
2022/04/21 02:31:38;;;;;;;12.70;11.77;;;;;;;0.42;95.08;92713.97;4990088;28;20219;-74
2022/04/21 02:34:03;;;;;;;13.73;12.53;;;;;;;0.34;95.28;92696.31;4989636;28;20228;-74
2022/04/21 02:36:28;;;;;;;12.20;11.20;;;;;;;0.36;95.27;92714.84;4990684;28;20270;-74
2022/04/21 02:38:54;;;;;;;12.53;11.70;;;;;;;0.24;94.93;92698.59;4992542;28;20239;-74
2022/04/21 02:41:20;;;;;;;11.40;10.57;;;;;;;0.29;95.52;92709.00;4992781;28;20184;-74
2022/04/21 02:43:45;;;;;;;12.77;12.00;;;;;;;0.41;95.44;92720.13;4993506;28;20857;-74
2022/04/21 02:46:13;;;;;;;11.73;10.93;;;;;;;0.31;95.24;92706.22;4992221;28;20188;-74
2022/04/21 02:48:39;;;;;;;10.93;10.33;;;;;;;0.31;95.28;92725.00;4993404;28;20226;-74
2022/04/21 02:51:05;;;;;;;11.20;10.60;;;;;;;0.32;95.35;92713.72;4993097;28;20196;-74
2022/04/21 02:59:00;;;;;;;11.13;10.50;;;;;;;0.17;95.88;92708.16;4992980;28;20239;-74
2022/04/21 03:01:26;;;;;;;11.63;10.93;;;;;;;0.25;95.93;92719.91;4993260;28;20192;-74
2022/04/21 03:03:54;;;;;;;11.43;10.67;;;;;;;0.32;95.63;92725.75;4992782;28;20974;-74
2022/04/21 03:06:20;;;;;;;12.80;12.00;;;;;;;0.09;95.83;92700.72;4993828;28;20192;-74
2022/04/21 03:08:46;;;;;;;12.07;10.93;;;;;;;0.26;95.71;92732.53;4993095;28;20239;-74
2022/04/21 03:11:11;;;;;;;11.70;10.97;;;;;;;0.23;95.47;92709.88;4992947;28;20201;-74
2022/04/21 03:13:37;;;;;;;12.30;11.40;;;;;;;0.15;95.45;92727.31;4992797;28;20215;-74
2022/04/21 03:16:02;;;;;;;11.27;10.40;;;;;;;0.15;96.00;92730.69;4993375;28;20308;-74
2022/04/21 03:18:27;;;;;;;13.40;12.13;;;;;;;0.22;95.86;92725.47;4992483;28;20231;-74
2022/04/21 03:26:21;;;;;;;15.93;14.33;;;;;;;0.24;95.50;92708.84;4992883;28;20259;-74
2022/04/21 03:28:47;;;;;;;17.37;14.27;;;;;;;0.11;95.99;92698.72;4991973;28;20244;-74
2022/04/21 03:31:12;;;;;;;14.77;13.27;;;;;;;0.32;95.68;92712.91;4992734;28;20199;-74
2022/04/21 03:33:38;;;;;;;14.93;13.53;;;;;;;0.35;95.33;92715.06;4992247;28;20240;-74
2022/04/21 03:36:04;;;;;;;14.97;13.60;;;;;;;0.13;95.27;92696.72;4993223;28;20208;-74
2022/04/21 03:38:29;;;;;;;15.63;14.20;;;;;;;0.30;95.85;92707.22;4991813;28;20250;-74
2022/04/21 03:40:56;;;;;;;18.37;15.07;;;;;;;0.16;95.69;92695.53;4992067;28;20196;-74
2022/04/21 03:43:22;;;;;;;13.40;12.30;;;;;;;0.38;95.74;92718.00;4991804;28;20234;-74
2022/04/21 03:45:47;;;;;;;14.37;13.20;;;;;;;0.39;95.35;92711.84;5007420;28;20188;-74
2022/04/21 03:48:13;;;;;;;15.13;13.77;;;;;;;0.56;95.22;92714.63;4987414;28;20219;-80
2022/04/21 03:50:39;;;;;;;14.83;13.83;;;;;;;0.45;94.95;92705.09;4970232;28;20225;-81
2022/04/21 03:53:06;;;;;;;12.80;11.60;;;;;;;0.60;94.76;92711.41;4973827;28;20351;-80
2022/04/21 03:55:31;;;;;;;12.57;11.47;;;;;;;0.54;94.31;92688.38;4990721;28;20223;-82
2022/04/21 03:57:57;;;;;;;13.20;11.83;;;;;;;0.89;93.15;92709.84;4989724;28;20184;-83
2022/04/21 04:00:22;;;;;;;13.17;12.33;;;;;;;1.14;92.68;92707.94;4991415;28;20200;-82
2022/04/21 04:02:48;;;;;;;13.73;12.30;;;;;;;1.31;91.34;92719.94;4991087;28;20184;-79
2022/04/21 04:05:13;;;;;;;12.70;11.70;;;;;;;1.38;90.76;92717.28;4991037;28;20240;-77
2022/04/21 04:13:07;;;;;;;12.67;11.73;;;;;;;1.85;88.96;92724.06;4973264;28;20226;-78
2022/04/21 04:15:33;;;;;;;12.80;11.67;;;;;;;1.98;89.00;92712.78;4992206;28;20180;-76
2022/04/21 04:17:58;;;;;;;13.43;12.27;;;;;;;2.16;88.54;92713.44;4990783;28;20199;-84
2022/04/21 04:20:24;;;;;;;15.20;12.67;;;;;;;2.33;87.67;92714.31;4991813;28;20184;-82
2022/04/21 04:22:49;;;;;;;13.10;12.10;;;;;;;2.53;86.49;92711.38;4991320;28;20239;-82
2022/04/21 04:25:15;;;;;;;12.57;11.50;;;;;;;2.73;86.00;92709.97;4991728;28;20192;-81
2022/04/21 04:27:40;;;;;;;13.00;12.10;;;;;;;2.87;85.81;92705.34;4991544;28;20180;-79
2022/04/21 04:30:08;;;;;;;12.60;11.60;;;;;;;3.05;85.12;92710.34;4990492;28;20303;-78
2022/04/21 04:32:34;;;;;;;13.17;11.90;;;;;;;2.96;84.90;92688.47;4991663;28;20230;-80
2022/04/21 04:34:59;;;;;;;12.97;12.17;;;;;;;3.38;85.13;92704.47;4990647;28;20219;-78
2022/04/21 04:37:25;;;;;;;14.23;13.00;;;;;;;3.46;85.41;92702.25;4991218;28;20188;-77
2022/04/21 04:39:50;;;;;;;15.37;14.03;;;;;;;3.83;88.91;92695.63;4990096;28;20228;-75
2022/04/21 04:42:22;;;;;;;14.53;13.00;;;;;;;3.69;85.29;92707.28;4987955;28;20192;-75
2022/04/21 04:46:34;;;;;;;14.33;12.83;;;;;;;3.80;84.01;92713.41;4988546;28;20220;-75
2022/04/21 04:47:37;;;;;;;13.93;12.73;;;;;;;3.72;83.22;92709.41;4988536;28;20199;-82
2022/04/21 04:50:03;;;;;;;14.20;12.97;;;;;;;3.94;82.79;92715.44;4989243;28;20232;-76
2022/04/21 04:52:28;;;;;;;15.73;14.43;;;;;;;4.20;82.29;92717.34;4983466;28;20215;-78
2022/04/21 04:54:53;;;;;;;14.53;13.33;;;;;;;3.04;81.13;92523.09;4988762;28;20246;-77
2022/04/21 04:57:19;;;;;;;13.87;12.73;;;;;;;4.44;80.65;92723.09;4990195;28;20184;-78
2022/04/21 04:59:44;;;;;;;13.77;12.40;;;;;;;4.53;79.84;92726.84;4987723;28;20276;-76
2022/04/21 05:02:10;;;;;;;12.23;11.30;;;;;;;4.90;77.95;92730.44;4988485;28;20247;-76
2022/04/21 05:04:36;;;;;;;14.30;13.00;;;;;;;4.68;78.19;92716.72;4989737;28;20359;-77
2022/04/21 05:07:01;;;;;;;15.80;14.37;;;;;;;4.70;78.13;92736.13;4990254;28;20219;-76
2022/04/21 05:09:27;;;;;;;15.60;14.13;;;;;;;4.73;78.02;92735.66;4989367;28;20236;-78
2022/04/21 05:11:55;;;;;;;14.73;13.53;;;;;;;4.75;76.98;92722.47;4990307;28;20196;-78
2022/04/21 05:14:21;;;;;;;15.13;14.00;;;;;;;4.65;77.29;92740.47;4988971;28;20252;-77
2022/04/21 05:16:47;;;;;;;15.03;13.77;;;;;;;4.47;77.47;92736.34;4987545;28;20188;-77
2022/04/21 05:19:14;;;;;;;14.20;12.83;;;;;;;4.50;77.34;92733.28;4974681;28;20220;-78
2022/04/21 05:21:41;;;;;;;14.87;13.63;;;;;;;4.53;77.02;92735.38;4968957;28;20231;-77
2022/04/21 05:24:07;;;;;;;16.17;14.73;;;;;;;4.25;77.96;92742.50;4978446;28;20231;-78
2022/04/21 05:26:34;;;;;;;15.57;14.17;;;;;;;4.52;77.85;92748.56;4990528;28;20191;-80
2022/04/21 05:31:49;;;;;;;16.47;15.00;;;;;;;4.07;79.33;92735.78;4989062;28;20186;-77
2022/04/21 05:34:14;;;;;;;16.47;14.93;;;;;;;5.58;75.00;92743.59;4988514;28;20255;-77
2022/04/21 05:36:40;;;;;;;16.13;14.83;;;;;;;6.62;69.75;92743.88;4988871;28;20248;-77
2022/04/21 05:39:06;;;;;;;16.83;15.30;;;;;;;6.35;69.21;92747.38;4989394;28;20329;-79
2022/04/21 05:41:32;;;;;;;16.90;15.20;;;;;;;6.50;69.04;92725.94;4989550;28;20263;-80
2022/04/21 05:43:58;;;;;;;15.87;14.30;;;;;;;6.40;70.05;92752.59;4989702;28;20239;-81
2022/04/21 05:46:24;;;;;;;15.67;14.20;;;;;;;6.26;69.88;92735.09;4989935;28;20185;-80
2022/04/21 05:48:50;;;;;;;16.37;14.80;;;;;;;6.28;69.07;92733.06;4989994;28;20236;-85
2022/04/21 05:51:16;;;;;;;15.43;14.03;;;;;;;6.38;69.38;92749.47;4989770;28;20181;-86
2022/04/21 05:53:47;;;;;;;15.53;14.23;;;;;;;5.94;72.02;92742.91;4989669;28;20231;-83
2022/04/21 05:56:13;;;;;;;15.47;14.27;;;;;;;5.71;71.55;92722.47;4991318;28;20184;-83
2022/04/21 05:58:38;;;;;;;14.93;13.83;;;;;;;6.43;68.62;92731.34;4989212;28;20216;-82
2022/04/21 06:01:09;;;;;;;14.80;13.70;;;;;;;7.03;66.81;92746.47;4989675;28;20228;-86
2022/04/21 06:03:37;;;;;;;13.63;12.60;;;;;;;7.57;65.18;92747.69;4989475;28;20291;-83
2022/04/21 06:06:06;;;;;;;14.23;13.13;;;;;;;7.87;63.75;92736.56;4989919;28;20188;-83
2022/04/21 06:08:32;;;;;;;15.17;13.77;;;;;;;7.61;65.95;92724.56;4988124;28;20292;-84
2022/04/21 06:10:58;;;;;;;16.20;13.17;;;;;;;7.56;65.54;92729.75;4988314;28;20213;-84
2022/04/21 06:13:27;;;;;;;12.93;12.03;;;;;;;6.90;65.96;92726.16;4988433;28;20315;-85
2022/04/21 06:15:54;;;;;;;12.23;11.43;;;;;;;6.38;68.37;92720.19;4988033;28;20206;-84
2022/04/21 06:18:20;;;;;;;12.37;11.50;;;;;;;5.10;71.67;92741.03;4989316;28;20281;-85
2022/04/21 06:20:46;;;;;;;12.10;11.30;;;;;;;5.62;70.82;92734.31;4989153;28;20203;-84
2022/04/21 06:23:12;;;;;;;12.43;11.53;;;;;;;5.70;69.26;92752.00;4987937;28;20256;-84
2022/04/21 06:25:38;;;;;;;12.70;12.00;;;;;;;5.73;69.90;92741.13;4988257;28;20214;-84
2022/04/21 06:28:04;;;;;;;11.70;11.03;;;;;;;5.68;68.89;92742.91;4988400;28;20261;-84
2022/04/21 06:30:30;;;;;;;12.10;11.30;;;;;;;5.63;69.65;92740.28;4989218;28;20219;-83
2022/04/21 06:32:55;;;;;;;11.77;11.07;;;;;;;5.74;70.21;92742.72;4989018;28;20183;-84
2022/04/21 06:35:21;;;;;;;11.83;11.03;;;;;;;5.73;69.98;92737.75;4988902;28;20195;-84
2022/04/21 06:37:47;;;;;;;12.87;12.07;;;;;;;5.90;69.53;92744.44;4989076;28;20467;-81
2022/04/21 06:40:14;;;;;;;11.37;10.67;;;;;;;5.94;69.31;92729.19;4989429;28;20263;-84
2022/04/21 06:42:42;;;;;;;12.80;11.97;;;;;;;5.92;68.83;92723.44;4988999;28;20194;-84
2022/04/21 06:48:01;;;;;;;12.70;11.90;;;;;;;6.23;68.70;92726.03;4989188;28;20237;-84
2022/04/21 06:50:27;;;;;;;13.17;12.27;;;;;;;6.28;68.56;92733.06;4988374;28;20211;-84
2022/04/21 06:52:53;;;;;;;13.47;12.47;;;;;;;6.11;69.73;92735.78;4989348;28;20216;-83
2022/04/21 06:55:18;;;;;;;12.53;11.63;;;;;;;6.44;69.69;92724.34;4989811;28;20714;-84
2022/04/21 06:57:44;;;;;;;12.97;11.90;;;;;;;6.78;68.49;92732.56;4989125;28;20188;-83
2022/04/21 07:00:10;;;;;;;12.03;11.23;;;;;;;6.92;67.89;92742.25;4989161;28;20231;-85
2022/04/21 07:02:38;;;;;;;12.70;11.70;;;;;;;6.41;68.93;92727.44;4989673;28;20191;-84
2022/04/21 07:05:05;;;;;;;12.43;11.40;;;;;;;7.29;68.09;92737.72;4990048;28;20295;-84
2022/04/21 07:07:31;;;;;;;11.67;10.90;;;;;;;7.40;64.75;92741.91;4989464;28;20275;-84
2022/04/21 07:10:00;;;;;;;12.40;11.60;;;;;;;7.21;65.93;92740.81;4988361;28;20269;-85
2022/04/21 07:12:33;;;;;;;10.87;10.17;;;;;;;6.99;65.63;92745.38;4988894;28;20214;-83
2022/04/21 07:15:03;;;;;;;12.00;11.20;;;;;;;6.99;66.02;92747.22;4988150;28;20227;-86
2022/04/21 07:17:29;;;;;;;12.87;12.00;;;;;;;6.83;67.20;92748.97;4989861;28;20184;-84
2022/04/21 07:19:54;;;;;;;12.93;11.97;;;;;;;6.92;68.17;92741.47;4989665;28;20243;-84
2022/04/21 07:22:21;;;;;;;13.53;12.63;;;;;;;7.34;67.08;92750.72;4990235;28;20311;-83
2022/04/21 07:24:47;;;;;;;12.87;11.90;;;;;;;7.83;65.63;92754.47;4993004;28;20230;-86
2022/04/21 07:27:13;;;;;;;11.43;10.53;;;;;;;7.83;64.66;92738.09;4991546;28;20203;-85
2022/04/21 07:29:38;;;;;;;12.57;11.77;;;;;;;7.52;64.15;92749.47;4992315;28;20240;-85
2022/04/21 07:32:05;;;;;;;13.63;12.63;;;;;;;7.63;64.38;92777.81;4992258;28;20191;-80
2022/04/21 07:34:30;;;;;;;12.03;11.20;;;;;;;7.45;64.66;92764.53;4991546;28;20211;-85
2022/04/21 07:36:56;;;;;;;13.17;12.07;;;;;;;7.39;65.28;92775.94;4992241;28;20207;-82
2022/04/21 07:39:22;;;;;;;12.20;11.23;;;;;;;7.74;65.89;92756.03;4992381;28;20292;-83
2022/04/21 07:41:47;;;;;;;12.50;11.07;;;;;;;7.36;66.58;92779.81;5005869;28;20188;-88
2022/04/21 07:44:13;;;;;;;13.73;12.70;;;;;;;7.71;66.13;92773.94;4990954;28;20285;-81
2022/04/21 07:46:38;;;;;;;12.83;11.97;;;;;;;8.20;64.04;92760.22;4992128;28;20187;-76
2022/04/21 07:51:48;;;;;;;13.33;12.43;;;;;;;7.73;65.07;92766.69;4992579;28;20191;-75
2022/04/21 07:54:14;;;;;;;12.70;11.80;;;;;;;7.60;65.11;92765.34;4989422;28;20240;-75
2022/04/21 07:56:39;;;;;;;13.17;12.27;;;;;;;7.51;67.94;92774.69;4991067;28;20193;-76
2022/04/21 07:59:05;;;;;;;13.40;12.50;;;;;;;8.29;63.89;92767.53;4990958;28;20236;-76
2022/04/21 08:01:30;;;;;;;14.00;12.90;;;;;;;7.23;65.88;92766.53;4992107;28;20200;-78
2022/04/21 08:04:01;;;;;;;13.73;12.53;;;;;;;7.92;66.22;92741.75;4991676;28;20228;-77
2022/04/21 08:06:27;;;;;;;13.83;12.67;;;;;;;8.40;63.92;92774.31;4991759;28;20195;-76
2022/04/21 08:08:52;;;;;;;16.67;11.87;;;;;;;7.88;64.86;92756.31;5006399;28;20228;-77
2022/04/21 08:11:18;;;;;;;12.60;11.73;;;;;;;7.82;66.89;92762.53;4991973;28;20200;-76
2022/04/21 08:13:43;;;;;;;12.70;11.70;;;;;;;8.43;63.04;92771.97;4991401;28;20250;-81
2022/04/21 08:16:09;;;;;;;12.67;11.77;;;;;;;6.90;68.58;92756.50;4991961;28;20212;-79
2022/04/21 08:18:34;;;;;;;13.53;12.43;;;;;;;8.18;66.81;92764.91;4990886;28;20219;-78
2022/04/21 08:20:59;;;;;;;12.87;11.87;;;;;;;8.32;63.37;92769.63;4991832;28;20196;-76
2022/04/21 08:23:25;;;;;;;13.43;12.43;;;;;;;8.00;66.78;92765.41;4990860;28;20228;-77
2022/04/21 08:34:20;;;;;;;12.03;11.20;;;;;;;7.94;65.58;92757.84;4990225;28;20231;-76
2022/04/21 08:36:45;;;;;;;12.10;11.10;;;;;;;8.97;62.59;92772.13;4991614;28;20279;-75
2022/04/21 08:39:11;;;;;;;15.43;14.07;;;;;;;9.26;61.85;92762.69;4979787;28;20233;-75
2022/04/21 08:41:42;;;;;;;11.43;10.63;;;;;;;8.23;64.20;92782.38;4971617;28;20193;-75
2022/04/21 08:44:08;;;;;;;12.63;11.53;;;;;;;9.03;62.40;92776.28;4981850;28;20235;-75
2022/04/21 08:46:36;;;;;;;13.63;12.60;;;;;;;8.91;62.38;92758.38;4991182;28;20180;-75
2022/04/21 08:49:02;;;;;;;13.20;12.13;;;;;;;8.88;63.52;92778.94;4991081;28;20931;-75
2022/04/21 08:51:28;;;;;;;14.30;13.27;;;;;;;9.09;61.37;92775.25;4991007;28;20203;-75
2022/04/21 08:53:55;;;;;;;15.00;13.83;;;;;;;9.26;62.01;92760.84;4990735;28;20363;-75
2022/04/21 08:56:22;;;;;;;14.43;13.13;;;;;;;9.04;62.85;92759.63;4991891;28;20184;-74
2022/04/21 08:58:48;;;;;;;14.97;13.63;;;;;;;8.50;64.20;92749.06;4988956;28;20231;-75
2022/04/21 09:01:14;;;;;;;14.47;13.37;;;;;;;8.60;65.20;92756.06;4990008;28;20214;-76
2022/04/21 09:03:40;;;;;;;13.67;12.57;;;;;;;8.75;65.23;92743.81;4990481;28;20235;-75
2022/04/21 09:06:05;;;;;;;18.13;16.30;;;;;;;9.71;62.20;92765.84;4990592;28;20244;-75
2022/04/21 09:08:34;;;;;;;24.93;20.80;;;;;;;10.08;59.04;92765.41;4990188;28;20227;-74
2022/04/21 09:11:11;;;;;;;15.67;14.13;;;;;;;9.76;58.91;92759.84;4990684;28;20219;-75
2022/04/21 09:13:41;;;;;;;17.53;15.00;;;;;;;9.80;60.57;92769.44;4989734;28;20262;-74
2022/04/21 09:16:09;;;;;;;15.30;13.70;;;;;;;9.84;58.86;92750.69;4990822;28;20187;-74
2022/04/21 09:18:43;;;;;;;14.50;13.50;;;;;;;9.37;60.54;92751.94;4990539;28;20247;-76
2022/04/21 09:21:15;;;;;;;14.37;13.17;;;;;;;9.33;61.80;92747.53;4990149;28;20188;-76
2022/04/21 09:23:45;;;;;;;16.53;15.07;;;;;;;9.85;60.88;92753.03;4990030;28;20219;-75
2022/04/21 09:26:13;;;;;;;17.03;15.47;;;;;;;10.02;59.58;92753.44;4990748;28;20207;-75
2022/04/21 09:28:39;;;;;;;14.47;13.27;;;;;;;9.47;61.87;92751.91;4990021;28;20227;-75
2022/04/21 09:31:07;;;;;;;14.90;13.60;;;;;;;9.77;59.80;92762.16;4989061;28;20211;-75
2022/04/21 09:33:35;;;;;;;13.20;12.20;;;;;;;9.84;59.47;92719.41;4989110;28;20231;-78
2022/04/21 09:36:05;;;;;;;14.27;13.17;;;;;;;9.85;58.87;92755.63;4989133;28;20195;-74
2022/04/21 09:38:31;;;;;;;14.70;13.33;;;;;;;9.98;61.02;92768.06;4989083;28;21028;-75
2022/04/21 09:41:17;;;;;;;15.20;14.00;;;;;;;10.00;58.79;92758.13;5005373;28;20192;-75
2022/04/21 09:43:43;;;;;;;13.97;12.87;;;;;;;9.79;59.71;92770.50;4988883;28;20231;-76
2022/04/21 09:46:22;;;;;;;14.03;12.73;;;;;;;10.21;59.26;92761.44;4989177;28;20234;-76
2022/04/21 09:48:53;;;;;;;15.73;14.43;;;;;;;10.16;59.58;92749.19;4989244;28;20227;-76
2022/04/21 09:51:24;;;;;;;15.20;13.90;;;;;;;9.93;60.42;92744.59;4989614;28;20208;-76
2022/04/21 09:53:57;;;;;;;15.57;14.37;;;;;;;10.05;60.25;92765.94;4988293;28;20232;-75
2022/04/21 09:56:33;;;;;;;15.60;14.23;;;;;;;9.98;61.86;92752.41;4989156;28;20184;-76
2022/04/21 09:59:12;;;;;;;15.07;13.77;;;;;;;10.22;59.50;92760.38;4988928;28;20874;-76
2022/04/21 10:01:42;;;;;;;15.80;14.30;;;;;;;10.63;57.97;92759.00;4989480;28;20195;-76
2022/04/21 10:04:11;;;;;;;14.70;13.37;;;;;;;10.57;59.12;92747.03;4987473;28;20227;-76
2022/04/21 10:06:41;;;;;;;16.93;15.37;;;;;;;10.57;59.74;92749.63;4988707;28;20176;-76
2022/04/21 10:09:07;;;;;;;15.97;14.67;;;;;;;10.49;59.46;92737.97;4989399;28;20228;-77
2022/04/21 10:11:33;;;;;;;18.93;14.37;;;;;;;10.59;59.30;92750.94;4988966;28;20244;-76
2022/04/21 10:13:59;;;;;;;15.97;14.67;;;;;;;10.82;58.48;92752.81;4989084;28;20215;-81
2022/04/21 10:16:28;;;;;;;15.83;14.23;;;;;;;10.92;57.50;92744.09;4988989;28;20188;-76
2022/04/21 10:18:55;;;;;;;16.20;14.70;;;;;;;10.65;58.17;92747.22;4988773;28;20295;-77
2022/04/21 10:21:36;;;;;;;15.80;14.27;;;;;;;10.33;58.87;92746.97;4988652;28;20184;-75
2022/04/21 10:24:03;;;;;;;15.40;14.00;;;;;;;10.42;58.99;92734.91;4988792;28;20219;-76
2022/04/21 10:26:44;;;;;;;14.63;13.20;;;;;;;10.67;57.80;92728.66;4988304;28;20199;-75
2022/04/21 10:29:21;;;;;;;15.20;13.97;;;;;;;10.76;59.30;92738.25;4988568;28;20220;-75
2022/04/21 10:31:59;;;;;;;16.00;14.50;;;;;;;10.51;58.75;92730.63;4987304;28;20215;-76
2022/04/21 10:34:42;;;;;;;15.47;14.03;;;;;;;10.40;59.31;92739.59;4988761;28;20315;-75
2022/04/21 10:37:19;;;;;;;18.70;14.07;;;;;;;10.99;59.09;92740.09;4987830;28;20228;-75
2022/04/21 10:40:10;;;;;;;14.50;13.20;;;;;;;11.44;57.32;92744.03;4988369;28;20255;-84
2022/04/21 10:42:51;;;;;;;15.47;14.10;;;;;;;11.74;56.73;92735.84;4988675;28;20264;-78
2022/04/21 10:45:31;;;;;;;14.43;13.13;;;;;;;11.25;57.12;92725.69;4969415;28;20204;-82
2022/04/21 10:48:04;;;;;;;13.50;12.50;;;;;;;11.04;57.14;92732.22;4986213;28;20248;-82
2022/04/21 10:50:31;;;;;;;16.77;15.07;;;;;;;10.17;60.17;92734.31;4988786;28;20376;-83
2022/04/21 10:58:34;;;;;;;15.77;14.33;;;;;;;10.92;59.70;92738.88;4977632;28;20234;-78
2022/04/21 11:01:11;;;;;;;16.27;14.80;;;;;;;11.11;58.02;92729.28;4991958;28;20203;-79
2022/04/21 11:03:38;;;;;;;14.73;13.33;;;;;;;10.86;58.52;92727.69;4992878;28;20232;-80
2022/04/21 11:06:14;;;;;;;15.63;14.07;;;;;;;11.34;57.45;92739.72;4992865;28;20769;-80
2022/04/21 11:08:41;;;;;;;16.03;14.63;;;;;;;11.10;57.38;92728.47;4991960;28;20216;-79
2022/04/21 11:11:07;;;;;;;17.63;16.00;;;;;;;10.90;58.22;92725.31;4991656;28;20220;-79
2022/04/21 11:13:40;;;;;;;17.23;15.47;;;;;;;10.85;58.74;92735.78;4990719;28;20224;-81
2022/04/21 11:16:06;;;;;;;16.00;14.50;;;;;;;10.86;58.26;92729.53;4991976;28;20235;-80
2022/04/21 11:18:32;;;;;;;15.97;14.63;;;;;;;10.45;59.93;92730.94;4992001;28;20216;-85
2022/04/21 11:21:26;;;;;;;14.23;13.00;;;;;;;10.78;59.01;92730.91;4993172;28;20196;-83
2022/04/21 11:23:52;;;;;;;15.17;13.73;;;;;;;10.72;59.87;92732.00;4993125;28;21175;-85
2022/04/21 12:45:41;;;;;;;16.57;15.07;;;;;;;12.90;56.37;92666.69;5139745;27;20567;-83
2022/04/21 12:48:21;;;;;;;16.07;14.53;;;;;;;13.29;56.91;92695.06;5067427;28;20223;-82
2022/04/21 12:50:46;;;;;;;15.33;14.13;;;;;;;13.22;55.88;92697.28;5064626;28;20177;-82
2022/04/21 12:53:24;;;;;;;14.10;12.93;;;;;;;13.00;56.46;92695.34;5062026;28;20215;-82
2022/04/21 12:55:51;;;;;;;13.37;12.33;;;;;;;13.24;57.21;92693.31;5064091;28;20181;-82
2022/04/21 12:58:29;;;;;;;16.90;15.67;;;;;;;13.26;55.45;92687.78;5064253;28;20203;-82
2022/04/21 13:00:54;;;;;;;13.30;12.13;;;;;;;12.96;55.01;92689.88;5061709;28;20208;-80
2022/04/21 13:03:20;;;;;;;14.43;13.27;;;;;;;12.70;56.71;92677.56;5064554;28;20194;-80
2022/04/21 13:05:51;;;;;;;14.23;13.07;;;;;;;12.87;56.98;92677.75;5064295;28;20194;-76
2022/04/21 13:08:20;;;;;;;14.57;13.33;;;;;;;12.91;57.07;92663.78;5063782;28;20206;-80
2022/04/21 13:10:47;;;;;;;13.43;12.33;;;;;;;13.03;55.96;92680.91;5059528;28;20174;-79
2022/04/21 13:13:12;;;;;;;13.17;12.03;;;;;;;13.03;57.04;92658.06;5063739;28;20221;-82
2022/04/21 13:15:45;;;;;;;13.90;12.83;;;;;;;13.24;56.33;92669.72;5065380;28;20190;-80
2022/04/21 13:18:12;;;;;;;14.43;13.10;;;;;;;13.38;56.22;92669.72;5064134;28;20215;-78
2022/04/21 13:23:26;;;;;;;13.00;12.10;;;;;;;12.86;57.29;92660.47;5063591;28;20220;-82
2022/04/21 13:25:52;;;;;;;12.77;11.80;;;;;;;13.00;57.58;92686.69;5063607;28;20216;-82
2022/04/21 13:28:18;;;;;;;14.90;13.50;;;;;;;13.01;55.18;92694.31;5066792;28;20268;-83
2022/04/21 13:30:43;;;;;;;13.07;12.10;;;;;;;13.07;54.68;92672.16;5063537;28;20190;-82
2022/04/21 13:33:24;;;;;;;14.77;13.40;;;;;;;13.57;55.31;92686.09;5061886;28;20249;-82
2022/04/21 13:35:53;;;;;;;12.97;12.07;;;;;;;13.52;55.70;92683.59;5057882;28;20189;-85